sensor_id;sensor_type;location;lat;lon;timestamp;temperature;humidity
24091;DHT22;12272;52.426;17.100;2023-12-14T00:03:41;7.80;99.90
24091;DHT22;12272;52.426;17.100;2023-12-14T00:08:46;7.50;99.90
24091;DHT22;12272;52.426;17.100;2023-12-14T00:13:49;7.70;99.90
24091;DHT22;12272;52.426;17.100;2023-12-14T00:18:51;7.50;99.90
24091;DHT22;12272;52.426;17.100;2023-12-14T00:23:54;7.60;99.90
24091;DHT22;12272;52.426;17.100;2023-12-14T00:28:56;7.70;99.90
24091;DHT22;12272;52.426;17.100;2023-12-14T00:34:03;7.80;99.90
24091;DHT22;12272;52.426;17.100;2023-12-14T00:39:06;7.70;99.90
24091;DHT22;12272;52.426;17.100;2023-12-14T00:44:08;7.80;99.90
24091;DHT22;12272;52.426;17.100;2023-12-14T00:49:11;7.30;99.90
24091;DHT22;12272;52.426;17.100;2023-12-14T00:54:13;7.90;99.90
24091;DHT22;12272;52.426;17.100;2023-12-14T00:59:16;7.50;99.90
24091;DHT22;12272;52.426;17.100;2023-12-14T01:04:18;7.10;99.90
24091;DHT22;12272;52.426;17.100;2023-12-14T01:09:21;7.30;99.90
24091;DHT22;12272;52.426;17.100;2023-12-14T01:14:24;7.30;99.90
24091;DHT22;12272;52.426;17.100;2023-12-14T01:19:26;7.50;99.90
24091;DHT22;12272;52.426;17.100;2023-12-14T01:24:29;7.90;99.90
24091;DHT22;12272;52.426;17.100;2023-12-14T01:29:31;7.70;99.90
24091;DHT22;12272;52.426;17.100;2023-12-14T01:34:34;7.20;99.90
24091;DHT22;12272;52.426;17.100;2023-12-14T01:39:36;6.90;99.90
24091;DHT22;12272;52.426;17.100;2023-12-14T01:44:39;6.60;99.90
24091;DHT22;12272;52.426;17.100;2023-12-14T01:49:41;6.20;99.90
24091;DHT22;12272;52.426;17.100;2023-12-14T01:54:44;6.20;99.90
24091;DHT22;12272;52.426;17.100;2023-12-14T01:59:48;6.00;99.90
24091;DHT22;12272;52.426;17.100;2023-12-14T02:04:50;6.20;99.90
24091;DHT22;12272;52.426;17.100;2023-12-14T02:09:53;6.50;99.90
24091;DHT22;12272;52.426;17.100;2023-12-14T02:14:56;6.30;99.90
24091;DHT22;12272;52.426;17.100;2023-12-14T02:19:59;6.20;99.90
24091;DHT22;12272;52.426;17.100;2023-12-14T02:25:03;6.00;99.90
24091;DHT22;12272;52.426;17.100;2023-12-14T02:30:07;6.30;99.90
24091;DHT22;12272;52.426;17.100;2023-12-14T02:35:09;6.30;99.90
24091;DHT22;12272;52.426;17.100;2023-12-14T02:40:12;5.90;99.90
24091;DHT22;12272;52.426;17.100;2023-12-14T02:45:15;6.00;99.90
24091;DHT22;12272;52.426;17.100;2023-12-14T02:50:17;6.00;99.90
24091;DHT22;12272;52.426;17.100;2023-12-14T02:55:20;5.80;99.90
24091;DHT22;12272;52.426;17.100;2023-12-14T03:00:22;5.80;99.90
24091;DHT22;12272;52.426;17.100;2023-12-14T03:05:25;5.90;99.90
24091;DHT22;12272;52.426;17.100;2023-12-14T03:10:27;5.60;99.90
24091;DHT22;12272;52.426;17.100;2023-12-14T03:15:30;5.60;99.90
24091;DHT22;12272;52.426;17.100;2023-12-14T03:20:33;5.50;99.90
24091;DHT22;12272;52.426;17.100;2023-12-14T03:25:35;5.30;99.90
24091;DHT22;12272;52.426;17.100;2023-12-14T03:30:37;5.20;99.90
24091;DHT22;12272;52.426;17.100;2023-12-14T03:35:40;5.30;99.90
24091;DHT22;12272;52.426;17.100;2023-12-14T03:40:44;5.00;99.90
24091;DHT22;12272;52.426;17.100;2023-12-14T03:45:46;5.10;99.90
24091;DHT22;12272;52.426;17.100;2023-12-14T03:50:50;5.00;99.90
24091;DHT22;12272;52.426;17.100;2023-12-14T04:00:55;4.80;99.90
24091;DHT22;12272;52.426;17.100;2023-12-14T04:05:57;4.80;99.90
24091;DHT22;12272;52.426;17.100;2023-12-14T04:11:00;4.80;99.90
24091;DHT22;12272;52.426;17.100;2023-12-14T04:16:03;4.70;99.90
24091;DHT22;12272;52.426;17.100;2023-12-14T04:21:06;4.80;99.90
24091;DHT22;12272;52.426;17.100;2023-12-14T04:26:08;4.80;99.90
24091;DHT22;12272;52.426;17.100;2023-12-14T04:31:12;4.90;99.90
24091;DHT22;12272;52.426;17.100;2023-12-14T04:36:14;5.00;99.90
24091;DHT22;12272;52.426;17.100;2023-12-14T04:41:17;4.80;99.90
24091;DHT22;12272;52.426;17.100;2023-12-14T04:46:20;4.80;99.90
24091;DHT22;12272;52.426;17.100;2023-12-14T04:51:22;4.50;99.90
24091;DHT22;12272;52.426;17.100;2023-12-14T04:56:25;4.60;99.90
24091;DHT22;12272;52.426;17.100;2023-12-14T05:01:28;4.80;99.90
24091;DHT22;12272;52.426;17.100;2023-12-14T05:06:34;4.80;99.90
24091;DHT22;12272;52.426;17.100;2023-12-14T05:11:39;4.90;99.90
24091;DHT22;12272;52.426;17.100;2023-12-14T05:16:42;4.90;99.90
24091;DHT22;12272;52.426;17.100;2023-12-14T05:21:45;4.70;99.90
24091;DHT22;12272;52.426;17.100;2023-12-14T05:26:48;4.80;99.90
24091;DHT22;12272;52.426;17.100;2023-12-14T05:31:50;4.70;99.90
24091;DHT22;12272;52.426;17.100;2023-12-14T05:36:53;4.60;99.90
24091;DHT22;12272;52.426;17.100;2023-12-14T05:41:55;4.50;99.90
24091;DHT22;12272;52.426;17.100;2023-12-14T05:46:58;4.30;99.90
24091;DHT22;12272;52.426;17.100;2023-12-14T05:52:00;4.60;99.90
24091;DHT22;12272;52.426;17.100;2023-12-14T05:57:03;4.40;99.90
24091;DHT22;12272;52.426;17.100;2023-12-14T06:02:06;4.30;99.90
24091;DHT22;12272;52.426;17.100;2023-12-14T06:07:08;4.50;99.90
24091;DHT22;12272;52.426;17.100;2023-12-14T06:12:11;4.50;99.90
24091;DHT22;12272;52.426;17.100;2023-12-14T06:17:13;4.50;99.90
24091;DHT22;12272;52.426;17.100;2023-12-14T06:22:16;4.20;99.90
24091;DHT22;12272;52.426;17.100;2023-12-14T06:27:18;4.30;99.90
24091;DHT22;12272;52.426;17.100;2023-12-14T06:32:21;4.20;99.90
24091;DHT22;12272;52.426;17.100;2023-12-14T06:37:24;4.20;99.90
24091;DHT22;12272;52.426;17.100;2023-12-14T06:42:27;4.40;99.90
24091;DHT22;12272;52.426;17.100;2023-12-14T06:47:30;5.40;99.90
24091;DHT22;12272;52.426;17.100;2023-12-14T06:52:32;4.70;99.90
24091;DHT22;12272;52.426;17.100;2023-12-14T06:57:35;4.50;99.90
24091;DHT22;12272;52.426;17.100;2023-12-14T07:02:38;4.40;99.90
24091;DHT22;12272;52.426;17.100;2023-12-14T07:07:41;4.30;99.90
24091;DHT22;12272;52.426;17.100;2023-12-14T07:12:43;4.30;99.90
24091;DHT22;12272;52.426;17.100;2023-12-14T07:17:46;4.20;99.90
24091;DHT22;12272;52.426;17.100;2023-12-14T07:22:48;4.20;99.90
24091;DHT22;12272;52.426;17.100;2023-12-14T07:27:51;4.20;99.90
24091;DHT22;12272;52.426;17.100;2023-12-14T07:32:54;4.20;99.90
24091;DHT22;12272;52.426;17.100;2023-12-14T07:37:57;4.30;99.90
24091;DHT22;12272;52.426;17.100;2023-12-14T07:43:00;4.20;99.90
24091;DHT22;12272;52.426;17.100;2023-12-14T07:48:02;4.40;99.90
24091;DHT22;12272;52.426;17.100;2023-12-14T07:53:06;4.60;99.90
24091;DHT22;12272;52.426;17.100;2023-12-14T07:58:09;4.80;99.90
24091;DHT22;12272;52.426;17.100;2023-12-14T08:03:11;4.80;99.90
24091;DHT22;12272;52.426;17.100;2023-12-14T08:08:14;4.60;99.90
24091;DHT22;12272;52.426;17.100;2023-12-14T08:13:17;4.50;99.90
24091;DHT22;12272;52.426;17.100;2023-12-14T08:18:19;4.60;99.90
24091;DHT22;12272;52.426;17.100;2023-12-14T08:23:22;4.60;99.90
24091;DHT22;12272;52.426;17.100;2023-12-14T08:28:25;4.80;99.90
24091;DHT22;12272;52.426;17.100;2023-12-14T08:33:29;4.70;99.90
24091;DHT22;12272;52.426;17.100;2023-12-14T08:38:31;4.70;99.90
24091;DHT22;12272;52.426;17.100;2023-12-14T08:43:34;4.90;99.90
24091;DHT22;12272;52.426;17.100;2023-12-14T08:48:36;4.90;99.90
24091;DHT22;12272;52.426;17.100;2023-12-14T08:53:40;5.00;99.90
24091;DHT22;12272;52.426;17.100;2023-12-14T08:58:43;5.00;99.90
24091;DHT22;12272;52.426;17.100;2023-12-14T09:03:45;4.80;99.90
24091;DHT22;12272;52.426;17.100;2023-12-14T09:08:48;4.80;99.90
24091;DHT22;12272;52.426;17.100;2023-12-14T09:13:51;4.80;99.90
24091;DHT22;12272;52.426;17.100;2023-12-14T09:18:53;4.80;99.90
24091;DHT22;12272;52.426;17.100;2023-12-14T09:23:56;4.60;99.90
24091;DHT22;12272;52.426;17.100;2023-12-14T09:28:58;4.90;99.90
24091;DHT22;12272;52.426;17.100;2023-12-14T09:34:01;4.80;99.90
24091;DHT22;12272;52.426;17.100;2023-12-14T09:39:04;4.80;99.90
24091;DHT22;12272;52.426;17.100;2023-12-14T09:44:07;4.70;99.90
24091;DHT22;12272;52.426;17.100;2023-12-14T09:49:10;4.70;99.90
24091;DHT22;12272;52.426;17.100;2023-12-14T09:54:13;4.60;99.90
24091;DHT22;12272;52.426;17.100;2023-12-14T09:59:16;4.70;99.90
24091;DHT22;12272;52.426;17.100;2023-12-14T10:04:19;4.70;99.90
24091;DHT22;12272;52.426;17.100;2023-12-14T10:09:23;5.10;99.90
24091;DHT22;12272;52.426;17.100;2023-12-14T10:14:25;5.10;99.90
24091;DHT22;12272;52.426;17.100;2023-12-14T10:19:28;4.90;99.90
24091;DHT22;12272;52.426;17.100;2023-12-14T10:24:32;5.00;99.90
24091;DHT22;12272;52.426;17.100;2023-12-14T10:29:37;5.20;99.90
24091;DHT22;12272;52.426;17.100;2023-12-14T10:34:39;5.10;99.90
24091;DHT22;12272;52.426;17.100;2023-12-14T10:39:43;5.00;99.90
24091;DHT22;12272;52.426;17.100;2023-12-14T10:44:49;5.00;99.90
24091;DHT22;12272;52.426;17.100;2023-12-14T10:50:14;4.90;99.90
24091;DHT22;12272;52.426;17.100;2023-12-14T10:55:28;5.10;99.90
24091;DHT22;12272;52.426;17.100;2023-12-14T11:00:33;5.20;99.90
24091;DHT22;12272;52.426;17.100;2023-12-14T11:05:37;5.30;99.90
24091;DHT22;12272;52.426;17.100;2023-12-14T11:10:59;5.20;99.90
24091;DHT22;12272;52.426;17.100;2023-12-14T11:16:11;5.00;99.90
24091;DHT22;12272;52.426;17.100;2023-12-14T11:21:22;5.20;99.90
24091;DHT22;12272;52.426;17.100;2023-12-14T11:26:29;5.10;99.90
24091;DHT22;12272;52.426;17.100;2023-12-14T11:31:31;5.30;99.90
24091;DHT22;12272;52.426;17.100;2023-12-14T11:36:34;5.30;99.90
24091;DHT22;12272;52.426;17.100;2023-12-14T11:41:38;5.30;99.90
24091;DHT22;12272;52.426;17.100;2023-12-14T11:46:48;5.40;99.90
24091;DHT22;12272;52.426;17.100;2023-12-14T11:51:57;5.20;99.90
24091;DHT22;12272;52.426;17.100;2023-12-14T11:57:01;5.10;99.90
24091;DHT22;12272;52.426;17.100;2023-12-14T12:02:05;5.00;99.90
24091;DHT22;12272;52.426;17.100;2023-12-14T12:07:07;5.10;99.90
24091;DHT22;12272;52.426;17.100;2023-12-14T12:12:14;5.20;99.90
24091;DHT22;12272;52.426;17.100;2023-12-14T12:17:17;5.10;99.90
24091;DHT22;12272;52.426;17.100;2023-12-14T12:22:21;4.80;99.90
24091;DHT22;12272;52.426;17.100;2023-12-14T12:27:25;4.60;99.90
24091;DHT22;12272;52.426;17.100;2023-12-14T12:32:27;4.70;99.90
24091;DHT22;12272;52.426;17.100;2023-12-14T12:37:30;4.70;99.90
24091;DHT22;12272;52.426;17.100;2023-12-14T12:42:32;4.60;99.90
24091;DHT22;12272;52.426;17.100;2023-12-14T12:47:35;4.60;99.90
24091;DHT22;12272;52.426;17.100;2023-12-14T12:52:38;4.70;99.90
24091;DHT22;12272;52.426;17.100;2023-12-14T12:57:41;4.50;99.90
24091;DHT22;12272;52.426;17.100;2023-12-14T13:02:45;4.70;99.90
24091;DHT22;12272;52.426;17.100;2023-12-14T13:07:47;4.60;99.90
24091;DHT22;12272;52.426;17.100;2023-12-14T13:12:50;4.60;99.90
24091;DHT22;12272;52.426;17.100;2023-12-14T13:17:53;4.50;99.90
24091;DHT22;12272;52.426;17.100;2023-12-14T13:22:56;4.60;99.90
24091;DHT22;12272;52.426;17.100;2023-12-14T13:27:58;4.60;99.90
24091;DHT22;12272;52.426;17.100;2023-12-14T13:33:01;4.80;99.90
24091;DHT22;12272;52.426;17.100;2023-12-14T13:38:06;4.60;99.90
24091;DHT22;12272;52.426;17.100;2023-12-14T13:43:09;4.60;99.90
24091;DHT22;12272;52.426;17.100;2023-12-14T13:48:13;4.40;99.90
24091;DHT22;12272;52.426;17.100;2023-12-14T13:53:15;4.60;99.90
24091;DHT22;12272;52.426;17.100;2023-12-14T13:58:20;4.50;99.90
24091;DHT22;12272;52.426;17.100;2023-12-14T14:03:23;4.50;99.90
24091;DHT22;12272;52.426;17.100;2023-12-14T14:08:25;4.60;99.90
24091;DHT22;12272;52.426;17.100;2023-12-14T14:13:29;4.60;99.90
24091;DHT22;12272;52.426;17.100;2023-12-14T14:18:31;4.60;99.90
24091;DHT22;12272;52.426;17.100;2023-12-14T14:23:36;4.60;99.90
24091;DHT22;12272;52.426;17.100;2023-12-14T14:28:39;4.40;99.90
24091;DHT22;12272;52.426;17.100;2023-12-14T14:33:41;4.30;99.90
24091;DHT22;12272;52.426;17.100;2023-12-14T14:38:44;4.20;99.90
24091;DHT22;12272;52.426;17.100;2023-12-14T14:43:46;4.20;99.90
24091;DHT22;12272;52.426;17.100;2023-12-14T14:48:49;4.50;99.90
24091;DHT22;12272;52.426;17.100;2023-12-14T14:53:51;4.60;99.90
24091;DHT22;12272;52.426;17.100;2023-12-14T14:58:55;4.40;99.90
24091;DHT22;12272;52.426;17.100;2023-12-14T15:03:58;4.30;99.90
24091;DHT22;12272;52.426;17.100;2023-12-14T15:09:01;4.10;99.90
24091;DHT22;12272;52.426;17.100;2023-12-14T15:14:05;4.00;99.90
24091;DHT22;12272;52.426;17.100;2023-12-14T15:19:07;3.90;99.90
24091;DHT22;12272;52.426;17.100;2023-12-14T15:24:10;4.10;99.90
24091;DHT22;12272;52.426;17.100;2023-12-14T15:29:12;4.00;99.90
24091;DHT22;12272;52.426;17.100;2023-12-14T15:34:15;3.90;99.90
24091;DHT22;12272;52.426;17.100;2023-12-14T15:39:17;5.20;99.90
24091;DHT22;12272;52.426;17.100;2023-12-14T15:44:20;5.20;99.90
24091;DHT22;12272;52.426;17.100;2023-12-14T15:49:23;5.10;99.90
24091;DHT22;12272;52.426;17.100;2023-12-14T15:54:25;5.00;99.90
24091;DHT22;12272;52.426;17.100;2023-12-14T15:59:28;4.70;99.90
24091;DHT22;12272;52.426;17.100;2023-12-14T16:04:30;4.60;99.90
24091;DHT22;12272;52.426;17.100;2023-12-14T16:09:33;4.60;99.90
24091;DHT22;12272;52.426;17.100;2023-12-14T16:14:35;4.70;99.90
24091;DHT22;12272;52.426;17.100;2023-12-14T16:19:38;4.60;99.90
24091;DHT22;12272;52.426;17.100;2023-12-14T16:24:40;4.40;99.90
24091;DHT22;12272;52.426;17.100;2023-12-14T16:29:46;3.90;99.90
24091;DHT22;12272;52.426;17.100;2023-12-14T16:34:48;3.70;99.90
24091;DHT22;12272;52.426;17.100;2023-12-14T16:39:51;3.80;99.90
24091;DHT22;12272;52.426;17.100;2023-12-14T16:44:53;3.80;99.90
24091;DHT22;12272;52.426;17.100;2023-12-14T16:49:56;3.70;99.90
24091;DHT22;12272;52.426;17.100;2023-12-14T16:54:58;3.70;99.90
24091;DHT22;12272;52.426;17.100;2023-12-14T17:00:01;3.50;99.90
24091;DHT22;12272;52.426;17.100;2023-12-14T17:05:04;3.60;99.90
24091;DHT22;12272;52.426;17.100;2023-12-14T17:10:07;3.60;99.90
24091;DHT22;12272;52.426;17.100;2023-12-14T17:15:10;3.60;99.90
24091;DHT22;12272;52.426;17.100;2023-12-14T17:20:15;3.80;99.90
24091;DHT22;12272;52.426;17.100;2023-12-14T17:25:17;3.70;99.90
24091;DHT22;12272;52.426;17.100;2023-12-14T17:30:20;3.60;99.90
24091;DHT22;12272;52.426;17.100;2023-12-14T17:35:23;3.70;99.90
24091;DHT22;12272;52.426;17.100;2023-12-14T17:40:25;3.90;99.90
24091;DHT22;12272;52.426;17.100;2023-12-14T17:45:28;4.00;99.90
24091;DHT22;12272;52.426;17.100;2023-12-14T17:50:30;4.10;99.90
24091;DHT22;12272;52.426;17.100;2023-12-14T17:55:33;4.00;99.90
24091;DHT22;12272;52.426;17.100;2023-12-14T18:00:36;4.00;99.90
24091;DHT22;12272;52.426;17.100;2023-12-14T18:05:38;3.90;99.90
24091;DHT22;12272;52.426;17.100;2023-12-14T18:10:41;4.00;99.90
24091;DHT22;12272;52.426;17.100;2023-12-14T18:15:44;4.00;99.90
24091;DHT22;12272;52.426;17.100;2023-12-14T18:20:46;4.00;99.90
24091;DHT22;12272;52.426;17.100;2023-12-14T18:25:49;4.00;99.90
24091;DHT22;12272;52.426;17.100;2023-12-14T18:30:52;4.00;99.90
24091;DHT22;12272;52.426;17.100;2023-12-14T18:35:55;4.10;99.90
24091;DHT22;12272;52.426;17.100;2023-12-14T18:40:57;4.00;99.90
24091;DHT22;12272;52.426;17.100;2023-12-14T18:46:00;3.70;99.90
24091;DHT22;12272;52.426;17.100;2023-12-14T18:51:03;3.60;99.90
24091;DHT22;12272;52.426;17.100;2023-12-14T18:56:06;3.30;99.90
24091;DHT22;12272;52.426;17.100;2023-12-14T19:01:08;2.90;99.90
24091;DHT22;12272;52.426;17.100;2023-12-14T19:06:13;2.70;99.90
24091;DHT22;12272;52.426;17.100;2023-12-14T19:11:18;2.50;99.90
24091;DHT22;12272;52.426;17.100;2023-12-14T19:16:25;2.30;99.90
24091;DHT22;12272;52.426;17.100;2023-12-14T19:21:28;2.50;99.90
24091;DHT22;12272;52.426;17.100;2023-12-14T19:26:31;2.60;99.90
24091;DHT22;12272;52.426;17.100;2023-12-14T19:31:34;2.70;99.90
24091;DHT22;12272;52.426;17.100;2023-12-14T19:36:37;2.70;99.90
24091;DHT22;12272;52.426;17.100;2023-12-14T19:41:40;2.70;99.90
24091;DHT22;12272;52.426;17.100;2023-12-14T19:46:42;2.90;99.90
24091;DHT22;12272;52.426;17.100;2023-12-14T19:51:45;3.50;99.90
24091;DHT22;12272;52.426;17.100;2023-12-14T19:56:48;3.70;99.90
24091;DHT22;12272;52.426;17.100;2023-12-14T20:01:51;3.70;99.90
24091;DHT22;12272;52.426;17.100;2023-12-14T20:06:54;3.30;99.90
24091;DHT22;12272;52.426;17.100;2023-12-14T20:12:00;2.80;99.90
24091;DHT22;12272;52.426;17.100;2023-12-14T20:17:03;3.00;99.90
24091;DHT22;12272;52.426;17.100;2023-12-14T20:22:09;3.00;99.90
24091;DHT22;12272;52.426;17.100;2023-12-14T20:27:12;2.70;99.90
24091;DHT22;12272;52.426;17.100;2023-12-14T20:32:15;2.30;99.90
24091;DHT22;12272;52.426;17.100;2023-12-14T20:37:18;2.30;99.90
24091;DHT22;12272;52.426;17.100;2023-12-14T20:42:21;2.20;99.90
24091;DHT22;12272;52.426;17.100;2023-12-14T20:47:23;1.80;99.90
24091;DHT22;12272;52.426;17.100;2023-12-14T20:52:26;1.30;99.90
24091;DHT22;12272;52.426;17.100;2023-12-14T20:57:28;1.00;99.90
24091;DHT22;12272;52.426;17.100;2023-12-14T21:02:31;0.70;99.90
24091;DHT22;12272;52.426;17.100;2023-12-14T21:07:34;0.70;99.90
24091;DHT22;12272;52.426;17.100;2023-12-14T21:12:36;0.90;99.90
24091;DHT22;12272;52.426;17.100;2023-12-14T21:17:39;2.00;99.90
24091;DHT22;12272;52.426;17.100;2023-12-14T21:22:42;2.50;99.90
24091;DHT22;12272;52.426;17.100;2023-12-14T21:27:44;2.70;99.90
24091;DHT22;12272;52.426;17.100;2023-12-14T21:32:48;3.30;99.90
24091;DHT22;12272;52.426;17.100;2023-12-14T21:37:51;3.30;99.90
24091;DHT22;12272;52.426;17.100;2023-12-14T21:42:53;3.00;99.90
24091;DHT22;12272;52.426;17.100;2023-12-14T21:47:56;2.40;99.90
24091;DHT22;12272;52.426;17.100;2023-12-14T21:52:59;2.00;99.90
24091;DHT22;12272;52.426;17.100;2023-12-14T21:58:01;1.70;99.90
24091;DHT22;12272;52.426;17.100;2023-12-14T22:03:04;1.60;99.90
24091;DHT22;12272;52.426;17.100;2023-12-14T22:08:06;1.60;99.90
24091;DHT22;12272;52.426;17.100;2023-12-14T22:13:09;1.70;99.90
24091;DHT22;12272;52.426;17.100;2023-12-14T22:18:11;2.30;99.90
24091;DHT22;12272;52.426;17.100;2023-12-14T22:23:14;2.70;99.90
24091;DHT22;12272;52.426;17.100;2023-12-14T22:28:16;2.90;99.90
24091;DHT22;12272;52.426;17.100;2023-12-14T22:33:19;3.10;99.90
24091;DHT22;12272;52.426;17.100;2023-12-14T22:38:22;3.30;99.90
24091;DHT22;12272;52.426;17.100;2023-12-14T22:43:24;3.50;99.90
24091;DHT22;12272;52.426;17.100;2023-12-14T22:48:27;3.80;99.90
24091;DHT22;12272;52.426;17.100;2023-12-14T22:53:29;3.40;99.90
24091;DHT22;12272;52.426;17.100;2023-12-14T22:58:32;3.10;99.90
24091;DHT22;12272;52.426;17.100;2023-12-14T23:03:35;2.50;99.90
24091;DHT22;12272;52.426;17.100;2023-12-14T23:08:37;3.00;99.90
24091;DHT22;12272;52.426;17.100;2023-12-14T23:13:40;3.30;99.90
24091;DHT22;12272;52.426;17.100;2023-12-14T23:18:42;3.00;99.90
24091;DHT22;12272;52.426;17.100;2023-12-14T23:23:45;3.20;99.90
24091;DHT22;12272;52.426;17.100;2023-12-14T23:28:48;3.80;99.90
24091;DHT22;12272;52.426;17.100;2023-12-14T23:33:51;4.00;99.90
24091;DHT22;12272;52.426;17.100;2023-12-14T23:38:53;3.20;99.90
24091;DHT22;12272;52.426;17.100;2023-12-14T23:43:56;3.10;99.90
24091;DHT22;12272;52.426;17.100;2023-12-14T23:49:01;3.40;99.90
24091;DHT22;12272;52.426;17.100;2023-12-14T23:54:04;3.20;99.90
24091;DHT22;12272;52.426;17.100;2023-12-14T23:59:07;3.40;99.90
